createdAt,value
2023-03-28T00:02:04.982Z,84.97
2023-03-28T00:04:31.459Z,84.58
2023-03-28T00:06:57.787Z,84.64
2023-03-28T00:09:25.657Z,84.10
2023-03-28T00:11:51.968Z,84.60
2023-03-28T00:14:18.298Z,84.53
2023-03-28T00:16:45.557Z,84.04
2023-03-28T00:19:15.639Z,84.46
2023-03-28T00:21:46.847Z,85.08
2023-03-28T00:24:14.686Z,85.67
2023-03-28T00:26:43.167Z,84.17
2023-03-28T00:29:15.568Z,85.31
2023-03-28T00:31:42.437Z,84.92
2023-03-28T00:34:08.810Z,84.11
2023-03-28T00:36:35.116Z,84.72
2023-03-28T00:39:06.273Z,84.49
2023-03-28T00:41:35.370Z,85.26
2023-03-28T00:44:22.092Z,84.79
2023-03-28T00:46:48.447Z,85.69
2023-03-28T00:49:24.224Z,85.30
2023-03-28T00:51:57.356Z,85.08
2023-03-28T00:54:27.960Z,85.04
2023-03-28T00:56:57.425Z,84.95
2023-03-28T00:59:28.836Z,85.62
2023-03-28T01:01:55.870Z,85.89
2023-03-28T01:04:27.132Z,85.39
2023-03-28T01:06:58.757Z,85.36
2023-03-28T01:09:26.751Z,85.06
2023-03-28T01:11:56.086Z,84.88
2023-03-28T01:14:26.280Z,84.81
2023-03-28T01:16:56.398Z,84.51
2023-03-28T01:19:38.461Z,84.27
2023-03-28T01:22:32.639Z,84.84
2023-03-28T01:25:11.179Z,84.64
2023-03-28T01:28:01.963Z,84.03
2023-03-28T01:31:14.036Z,84.50
2023-03-28T01:33:56.462Z,84.77
2023-03-28T01:36:41.674Z,84.59
2023-03-28T01:39:48.894Z,84.69
2023-03-28T01:42:31.970Z,83.71
2023-03-28T01:45:14.959Z,85.03
2023-03-28T01:48:03.558Z,85.44
2023-03-28T01:50:35.641Z,84.88
2023-03-28T01:53:11.389Z,84.82
2023-03-28T01:55:48.550Z,84.11
2023-03-28T01:58:39.595Z,84.52
2023-03-28T02:01:17.402Z,84.14
2023-03-28T02:03:51.880Z,84.34
2023-03-28T02:06:34.983Z,85.19
2023-03-28T02:09:04.197Z,85.57
2023-03-28T02:11:53.234Z,85.71
2023-03-28T02:14:37.091Z,85.56
2023-03-28T02:17:23.787Z,85.81
2023-03-28T02:20:24.647Z,85.01
2023-03-28T02:23:13.527Z,86.41
2023-03-28T02:25:49.714Z,86.06
2023-03-28T02:28:36.908Z,86.21
2023-03-28T02:31:15.452Z,86.49
2023-03-28T02:33:44.506Z,87.65
2023-03-28T02:36:35.145Z,87.57
2023-03-28T02:39:40.235Z,89.01
2023-03-28T02:42:38.069Z,87.20
2023-03-28T02:45:26.409Z,88.26
2023-03-28T02:48:30.333Z,86.85
2023-03-28T02:51:11.859Z,87.11
2023-03-28T02:53:49.628Z,86.91
2023-03-28T02:56:27.873Z,87.09
2023-03-28T02:59:18.200Z,88.36
2023-03-28T03:01:45.342Z,89.09
2023-03-28T03:04:13.408Z,88.37
2023-03-28T03:06:39.837Z,87.63
2023-03-28T03:09:06.183Z,87.16
2023-03-28T03:11:32.569Z,87.79
2023-03-28T03:14:00.266Z,88.14
2023-03-28T03:16:29.132Z,87.82
2023-03-28T03:18:57.206Z,87.93
2023-03-28T03:21:25.205Z,89.62
2023-03-28T03:23:52.061Z,88.57
2023-03-28T03:26:18.798Z,88.63
2023-03-28T03:28:53.936Z,87.46
2023-03-28T03:31:21.390Z,86.52
2023-03-28T03:34:07.481Z,86.19
2023-03-28T03:36:40.511Z,87.54
2023-03-28T03:39:07.513Z,87.80
2023-03-28T03:41:34.029Z,86.66
2023-03-28T03:44:00.725Z,88.51
2023-03-28T03:46:29.449Z,87.97
2023-03-28T03:48:55.989Z,88.48
2023-03-28T03:51:22.368Z,88.14
2023-03-28T03:53:52.244Z,87.84
2023-03-28T03:56:22.621Z,87.61
2023-03-28T03:58:53.800Z,89.40
2023-03-28T04:01:25.681Z,90.17
2023-03-28T04:03:53.281Z,87.36
2023-03-28T04:06:24.902Z,87.68
2023-03-28T04:08:51.445Z,89.28
2023-03-28T04:11:29.602Z,90.10
2023-03-28T04:13:56.036Z,90.03
2023-03-28T04:16:23.803Z,91.78
2023-03-28T04:18:57.724Z,91.69
2023-03-28T04:21:28.113Z,91.84
2023-03-28T04:23:55.802Z,91.95
2023-03-28T04:26:40.786Z,92.63
2023-03-28T04:29:10.439Z,93.95
2023-03-28T04:31:39.802Z,93.96
2023-03-28T04:34:31.305Z,91.74
2023-03-28T04:37:18.920Z,92.93
2023-03-28T04:39:53.947Z,91.95
2023-03-28T04:42:44.167Z,91.81
2023-03-28T04:45:15.048Z,93.00
2023-03-28T04:47:42.996Z,90.40
2023-03-28T04:50:16.487Z,92.36
2023-03-28T04:52:42.866Z,91.84
2023-03-28T04:55:10.247Z,91.81
2023-03-28T04:57:38.122Z,92.95
2023-03-28T05:00:09.863Z,93.05
2023-03-28T05:03:04.876Z,94.34
2023-03-28T05:05:37.059Z,92.83
2023-03-28T05:08:08.291Z,92.98
2023-03-28T05:10:34.664Z,92.75
2023-03-28T05:13:05.712Z,92.11
2023-03-28T05:15:39.276Z,93.48
2023-03-28T05:18:21.283Z,91.51
2023-03-28T05:20:47.689Z,91.00
2023-03-28T05:23:14.110Z,90.60
2023-03-28T05:25:42.851Z,92.51
2023-03-28T05:28:09.680Z,92.72
2023-03-28T05:30:45.899Z,93.42
2023-03-28T05:33:12.293Z,92.88
2023-03-28T05:35:39.098Z,92.89
2023-03-28T05:38:05.597Z,93.65
2023-03-28T05:40:32.410Z,93.14
2023-03-28T05:42:59.605Z,92.82
2023-03-28T05:45:26.369Z,93.22
2023-03-28T05:47:57.238Z,92.62
2023-03-28T05:50:26.159Z,92.74
2023-03-28T05:52:57.952Z,92.14
2023-03-28T05:55:24.353Z,91.75
2023-03-28T05:57:50.697Z,92.00
2023-03-28T06:00:20.559Z,91.30
2023-03-28T06:02:51.751Z,92.08
2023-03-28T06:05:21.512Z,91.15
2023-03-28T06:07:48.038Z,91.37
2023-03-28T06:10:17.383Z,92.83
2023-03-28T06:12:56.084Z,94.08
2023-03-28T06:15:22.982Z,93.49
2023-03-28T06:17:50.352Z,93.90
2023-03-28T06:20:17.091Z,94.49
2023-03-28T06:22:43.523Z,95.90
2023-03-28T06:25:10.882Z,95.40
2023-03-28T06:27:37.298Z,93.48
2023-03-28T06:30:04.624Z,92.36
2023-03-28T06:32:36.597Z,92.99
2023-03-28T06:35:03.449Z,94.15
2023-03-28T06:37:29.790Z,93.38
2023-03-28T06:40:06.146Z,92.86
2023-03-28T06:42:32.495Z,92.34
2023-03-28T06:45:14.757Z,91.57
2023-03-28T06:47:46.015Z,91.65
2023-03-28T06:50:12.735Z,91.67
2023-03-28T06:52:55.928Z,90.47
2023-03-28T06:55:22.680Z,89.66
2023-03-28T06:57:49.067Z,89.12
2023-03-28T07:00:29.501Z,89.05
2023-03-28T07:03:31.118Z,90.37
2023-03-28T07:05:58.381Z,91.16
2023-03-28T07:08:25.370Z,89.34
2023-03-28T07:10:52.287Z,89.89
2023-03-28T07:13:18.682Z,87.93
2023-03-28T07:16:05.618Z,88.92
2023-03-28T07:18:32.815Z,88.68
2023-03-28T07:21:03.966Z,88.71
2023-03-28T07:23:31.155Z,87.02
2023-03-28T07:25:57.476Z,86.11
2023-03-28T07:28:24.179Z,85.25
2023-03-28T07:30:54.079Z,84.28
2023-03-28T07:33:28.272Z,84.09
2023-03-28T07:36:07.751Z,85.02
2023-03-28T07:38:35.538Z,85.85
2023-03-28T07:41:02.421Z,83.30
2023-03-28T07:43:29.001Z,83.41
2023-03-28T07:46:06.562Z,81.57
2023-03-28T07:48:34.122Z,81.44
2023-03-28T07:51:02.541Z,82.12
2023-03-28T07:53:28.973Z,81.85
2023-03-28T07:55:56.351Z,82.81
2023-03-28T07:58:30.409Z,81.19
2023-03-28T08:01:08.623Z,82.02
2023-03-28T08:03:45.856Z,81.70
2023-03-28T08:06:28.547Z,81.18
2023-03-28T08:08:58.327Z,81.09
2023-03-28T08:11:35.461Z,79.43
2023-03-28T08:14:03.270Z,79.25
2023-03-28T08:16:30.592Z,79.47
2023-03-28T08:19:09.977Z,79.58
2023-03-28T08:21:48.238Z,80.00
2023-03-28T08:24:22.267Z,79.17
2023-03-28T08:27:01.533Z,77.40
2023-03-28T08:29:28.348Z,77.01
2023-03-28T08:31:54.669Z,77.58
2023-03-28T08:34:20.973Z,77.44
2023-03-28T08:36:48.801Z,75.37
2023-03-28T08:39:25.730Z,73.93
2023-03-28T08:42:15.403Z,73.63
2023-03-28T08:45:08.685Z,74.95
2023-03-28T08:47:53.760Z,73.36
2023-03-28T08:50:29.205Z,73.97
2023-03-28T08:52:55.733Z,74.14
2023-03-28T08:55:31.116Z,73.16
2023-03-28T08:57:58.828Z,74.08
2023-03-28T09:00:32.822Z,71.88
2023-03-28T09:03:00.438Z,70.96
2023-03-28T09:05:46.229Z,69.42
2023-03-28T09:08:19.825Z,71.06
2023-03-28T09:11:26.212Z,71.13
2023-03-28T09:14:06.651Z,68.01
2023-03-28T09:16:55.271Z,65.23
2023-03-28T09:19:48.976Z,65.61
2023-03-28T09:22:54.405Z,64.83
2023-03-28T09:25:32.707Z,62.71
2023-03-28T09:28:20.731Z,64.05
2023-03-28T09:30:50.170Z,64.85
2023-03-28T09:33:39.018Z,65.85
2023-03-28T09:36:22.553Z,60.05
2023-03-28T09:38:56.732Z,58.22
2023-03-28T09:41:31.246Z,59.92
2023-03-28T09:44:21.391Z,58.15
2023-03-28T09:47:14.757Z,56.50
2023-03-28T09:49:46.452Z,56.30
2023-03-28T09:52:18.511Z,56.34
2023-03-28T09:54:46.781Z,57.08
2023-03-28T09:57:13.276Z,54.95
2023-03-28T10:00:07.916Z,56.46
2023-03-28T10:02:54.673Z,56.12
2023-03-28T10:05:38.476Z,54.42
2023-03-28T10:08:23.214Z,54.03
2023-03-28T10:11:14.107Z,53.39
2023-03-28T10:13:45.494Z,55.55
2023-03-28T10:16:15.333Z,54.05
2023-03-28T10:19:13.963Z,50.97
2023-03-28T10:21:50.084Z,50.30
2023-03-28T10:24:22.264Z,50.03
2023-03-28T10:27:17.995Z,51.54
2023-03-28T10:29:46.609Z,50.65
2023-03-28T10:32:25.884Z,50.29
2023-03-28T10:35:27.920Z,50.46
2023-03-28T10:38:20.881Z,49.17
2023-03-28T10:41:21.469Z,49.62
2023-03-28T10:44:18.867Z,44.85
2023-03-28T10:46:55.039Z,46.43
2023-03-28T10:49:40.947Z,49.04
2023-03-28T10:52:40.572Z,50.32
2023-03-28T10:55:23.281Z,48.45
2023-03-28T10:58:12.824Z,46.54
2023-03-28T11:01:01.147Z,46.64
2023-03-28T11:04:04.663Z,42.42
2023-03-28T11:06:54.676Z,42.61
2023-03-28T11:10:01.207Z,43.95
2023-03-28T11:13:12.025Z,41.54
2023-03-28T11:16:01.921Z,41.88
2023-03-28T11:19:20.210Z,39.68
2023-03-28T11:22:13.167Z,39.07
2023-03-28T11:25:06.304Z,41.01
2023-03-28T11:28:15.476Z,41.97
2023-03-28T11:30:49.692Z,40.32
2023-03-28T11:33:46.789Z,42.90
2023-03-28T11:36:29.294Z,42.04
2023-03-28T11:39:05.741Z,38.77
2023-03-28T11:41:36.221Z,42.88
2023-03-28T11:44:21.275Z,38.16
2023-03-28T11:47:02.907Z,37.72
2023-03-28T11:49:50.536Z,41.03
2023-03-28T11:52:40.688Z,40.56
2023-03-28T11:55:15.269Z,38.84
2023-03-28T11:57:59.273Z,38.04
2023-03-28T12:00:34.747Z,37.15
2023-03-28T12:03:13.296Z,38.71
2023-03-28T12:06:00.064Z,38.79
2023-03-28T12:08:35.310Z,37.50
2023-03-28T12:11:06.140Z,38.34
2023-03-28T12:14:11.439Z,38.84
2023-03-28T12:16:47.313Z,35.94
2023-03-28T12:19:30.383Z,36.78
2023-03-28T12:22:21.243Z,37.12
2023-03-28T12:24:55.821Z,39.47
2023-03-28T12:27:53.249Z,37.02
2023-03-28T12:30:42.878Z,38.17
2023-03-28T12:33:38.855Z,37.11
2023-03-28T12:36:28.354Z,38.50
2023-03-28T12:39:08.667Z,39.69
2023-03-28T12:41:39.693Z,38.63
2023-03-28T12:44:17.237Z,37.60
2023-03-28T12:46:55.302Z,38.23
2023-03-28T12:49:40.514Z,38.48
2023-03-28T12:52:18.445Z,37.75
2023-03-28T12:55:04.699Z,37.91
2023-03-28T12:57:40.332Z,38.56
2023-03-28T13:00:27.326Z,38.55
2023-03-28T13:03:26.909Z,37.33
2023-03-28T13:06:02.792Z,39.02
2023-03-28T13:09:13.048Z,37.61
2023-03-28T13:12:06.544Z,38.46
2023-03-28T13:14:41.470Z,39.35
2023-03-28T13:17:17.010Z,38.91
2023-03-28T13:19:43.327Z,36.37
2023-03-28T13:22:26.970Z,36.35
2023-03-28T13:24:54.973Z,35.12
2023-03-28T13:27:32.880Z,37.85
2023-03-28T13:30:04.988Z,39.01
2023-03-28T13:32:42.129Z,36.80
2023-03-28T13:35:44.581Z,35.87
2023-03-28T13:38:29.259Z,36.29
2023-03-28T13:41:00.524Z,38.55
2023-03-28T13:43:33.371Z,40.71
2023-03-28T13:46:06.290Z,39.52
2023-03-28T13:48:38.287Z,39.68
2023-03-28T13:51:10.812Z,40.30
2023-03-28T13:53:46.963Z,40.30
2023-03-28T13:56:21.610Z,41.26
2023-03-28T13:58:49.143Z,42.60
2023-03-28T14:01:26.259Z,41.84
2023-03-28T14:03:54.537Z,42.68
2023-03-28T14:06:24.023Z,40.16
2023-03-28T14:08:54.185Z,42.83
2023-03-28T14:11:26.126Z,41.83
2023-03-28T14:14:01.752Z,41.07
2023-03-28T14:16:28.223Z,41.59
2023-03-28T14:18:54.661Z,41.83
2023-03-28T14:21:24.924Z,41.31
2023-03-28T14:24:00.053Z,42.08
2023-03-28T14:26:30.675Z,41.39
2023-03-28T14:29:04.468Z,41.74
2023-03-28T14:34:32.204Z,41.15
2023-03-28T14:37:16.599Z,41.51
2023-03-28T14:39:43.465Z,41.62
2023-03-28T14:42:15.687Z,41.19
2023-03-28T14:44:45.008Z,39.56
2023-03-28T14:47:16.839Z,39.05
2023-03-28T14:49:44.376Z,41.55
2023-03-28T14:52:16.082Z,40.25
2023-03-28T14:54:49.111Z,41.93
2023-03-28T14:57:18.010Z,41.11
2023-03-28T14:59:46.962Z,40.93
2023-03-28T15:02:30.314Z,43.06
2023-03-28T15:05:01.159Z,42.89
2023-03-28T15:07:29.240Z,43.47
2023-03-28T15:10:19.786Z,43.86
2023-03-28T15:13:06.376Z,41.52
2023-03-28T15:15:44.076Z,40.41
2023-03-28T15:18:14.771Z,41.72
2023-03-28T15:20:45.362Z,43.37
2023-03-28T15:23:17.068Z,42.54
2023-03-28T15:25:44.616Z,42.37
2023-03-28T15:28:16.427Z,42.33
2023-03-28T15:30:45.434Z,43.64
2023-03-28T15:33:23.076Z,42.19
2023-03-28T15:35:49.640Z,42.51
2023-03-28T15:38:21.823Z,42.46
2023-03-28T15:41:06.334Z,44.25
2023-03-28T15:43:39.424Z,42.50
2023-03-28T15:46:11.853Z,44.10
2023-03-28T15:48:40.660Z,44.36
2023-03-28T15:51:15.908Z,45.50
2023-03-28T15:53:44.836Z,43.10
2023-03-28T15:56:25.372Z,44.31
2023-03-28T15:58:52.428Z,44.76
2023-03-28T16:01:21.680Z,45.84
2023-03-28T16:03:49.809Z,44.17
2023-03-28T16:09:12.814Z,41.02
2023-03-28T16:11:39.402Z,41.55
2023-03-28T16:14:24.576Z,41.80
2023-03-28T16:17:09.920Z,43.83
2023-03-28T16:19:46.473Z,43.23
2023-03-28T16:22:12.815Z,43.99
2023-03-28T16:24:39.159Z,43.88
2023-03-28T16:27:05.494Z,45.31
2023-03-28T16:29:31.892Z,45.64
2023-03-28T16:31:58.255Z,45.39
2023-03-28T16:34:24.800Z,45.80
2023-03-28T16:36:51.627Z,46.98
2023-03-28T16:39:17.928Z,46.11
2023-03-28T16:41:44.218Z,46.67
2023-03-28T16:44:10.895Z,47.70
2023-03-28T16:46:37.353Z,48.13
2023-03-28T16:49:03.764Z,48.50
2023-03-28T16:51:30.263Z,48.50
2023-03-28T16:53:56.564Z,48.92
2023-03-28T16:56:26.626Z,49.87
2023-03-28T16:58:54.121Z,50.03
2023-03-28T17:01:20.493Z,50.63
2023-03-28T17:03:47.357Z,50.69
2023-03-28T17:06:14.696Z,50.09
2023-03-28T17:08:41.261Z,52.60
2023-03-28T17:11:10.963Z,52.17
2023-03-28T17:13:39.295Z,52.28
2023-03-28T17:16:07.682Z,52.48
2023-03-28T17:18:34.185Z,53.58
2023-03-28T17:21:12.151Z,53.24
2023-03-28T17:23:40.594Z,53.25
2023-03-28T17:26:09.116Z,54.29
2023-03-28T17:28:39.715Z,53.68
2023-03-28T17:31:11.330Z,54.05
2023-03-28T17:33:38.364Z,55.01
2023-03-28T17:36:26.181Z,54.62
2023-03-28T17:38:55.516Z,55.30
2023-03-28T17:41:25.445Z,55.38
2023-03-28T17:43:52.761Z,56.04
2023-03-28T17:46:19.112Z,57.31
2023-03-28T17:48:45.548Z,57.13
2023-03-28T17:51:12.334Z,57.03
2023-03-28T17:53:40.045Z,56.87
2023-03-28T17:56:07.235Z,57.05
2023-03-28T17:58:33.564Z,57.17
2023-03-28T18:01:00.008Z,57.50
2023-03-28T18:03:27.619Z,58.54
2023-03-28T18:06:09.929Z,58.59
2023-03-28T18:08:36.616Z,58.21
2023-03-28T18:11:07.208Z,58.22
2023-03-28T18:13:35.358Z,59.45
2023-03-28T18:16:04.557Z,59.47
2023-03-28T18:18:31.685Z,59.77
2023-03-28T18:20:58.096Z,58.77
2023-03-28T18:23:25.160Z,59.30
2023-03-28T18:25:51.973Z,59.59
2023-03-28T18:28:22.017Z,59.66
2023-03-28T18:30:48.322Z,59.08
2023-03-28T18:33:15.760Z,59.67
2023-03-28T18:35:42.116Z,60.57
2023-03-28T18:38:08.545Z,60.01
2023-03-28T18:40:34.859Z,60.21
2023-03-28T18:43:01.148Z,60.09
2023-03-28T18:45:27.501Z,59.96
2023-03-28T18:47:53.966Z,59.96
2023-03-28T18:50:21.017Z,59.82
2023-03-28T18:52:47.680Z,58.81
2023-03-28T18:55:14.705Z,58.95
2023-03-28T18:57:41.156Z,60.37
2023-03-28T19:00:17.289Z,60.44
2023-03-28T19:02:48.234Z,58.04
2023-03-28T19:05:15.785Z,59.91
2023-03-28T19:07:45.141Z,59.78
2023-03-28T19:10:13.174Z,59.22
2023-03-28T19:12:41.024Z,59.71
2023-03-28T19:15:08.568Z,60.61
2023-03-28T19:17:36.677Z,59.45
2023-03-28T19:20:07.317Z,59.67
2023-03-28T19:22:35.005Z,58.59
2023-03-28T19:25:01.376Z,59.17
2023-03-28T19:27:27.723Z,59.25
2023-03-28T19:29:54.045Z,58.58
2023-03-28T19:32:20.463Z,58.46
2023-03-28T19:34:46.847Z,58.00
2023-03-28T19:37:13.669Z,57.23
2023-03-28T19:39:39.969Z,56.62
2023-03-28T19:42:06.262Z,56.57
2023-03-28T19:44:33.090Z,57.55
2023-03-28T19:46:59.743Z,57.17
2023-03-28T19:49:26.206Z,58.85
2023-03-28T19:51:53.344Z,59.33
2023-03-28T19:54:19.879Z,59.61
2023-03-28T19:56:46.763Z,59.24
2023-03-28T19:59:13.238Z,62.16
2023-03-28T20:01:39.694Z,62.74
2023-03-28T20:04:06.338Z,64.32
2023-03-28T20:06:32.683Z,66.98
2023-03-28T20:08:59.044Z,66.45
2023-03-28T20:11:26.420Z,67.19
2023-03-28T20:13:52.740Z,68.29
2023-03-28T20:16:19.143Z,68.78
2023-03-28T20:18:46.205Z,67.97
2023-03-28T20:21:13.783Z,68.72
2023-03-28T20:23:40.966Z,71.87
2023-03-28T20:26:15.271Z,72.08
2023-03-28T20:28:41.664Z,75.77
2023-03-28T20:31:14.055Z,74.64
2023-03-28T20:33:40.794Z,76.91
2023-03-28T20:36:07.341Z,77.76
2023-03-28T20:38:33.843Z,80.11
2023-03-28T20:41:00.710Z,81.53
2023-03-28T20:43:29.422Z,82.25
2023-03-28T20:46:01.369Z,82.27
2023-03-28T20:48:35.863Z,80.95
2023-03-28T20:51:15.792Z,84.97
2023-03-28T20:53:44.073Z,84.87
2023-03-28T20:56:11.903Z,86.21
2023-03-28T20:58:38.991Z,87.29
2023-03-28T21:01:07.109Z,87.29
2023-03-28T21:03:46.790Z,87.80
2023-03-28T21:06:25.789Z,89.11
2023-03-28T21:08:54.803Z,89.34
2023-03-28T21:11:26.140Z,89.04
2023-03-28T21:13:53.070Z,88.52
2023-03-28T21:16:20.872Z,89.62
2023-03-28T21:18:47.872Z,89.77
2023-03-28T21:21:16.257Z,90.75
2023-03-28T21:23:44.583Z,91.00
2023-03-28T21:26:14.333Z,90.90
2023-03-28T21:28:41.050Z,91.89
2023-03-28T21:31:10.838Z,92.68
2023-03-28T21:33:38.188Z,93.78
2023-03-28T21:36:08.754Z,94.82
2023-03-28T21:38:35.353Z,97.18
2023-03-28T21:41:02.548Z,95.55
2023-03-28T21:43:29.153Z,96.43
2023-03-28T21:45:55.807Z,96.58
2023-03-28T21:48:22.146Z,97.54
2023-03-28T21:50:58.874Z,97.80
2023-03-28T21:53:34.285Z,98.22
2023-03-28T21:56:01.064Z,97.71
2023-03-28T21:58:30.699Z,98.23
2023-03-28T22:00:57.340Z,99.26
2023-03-28T22:03:23.994Z,99.69
2023-03-28T22:05:53.022Z,100.00
2023-03-28T22:08:20.494Z,100.00
2023-03-28T22:10:51.272Z,100.00
2023-03-28T22:13:18.178Z,100.00
2023-03-28T22:15:44.806Z,100.00
2023-03-28T22:18:11.826Z,100.00
2023-03-28T22:20:39.783Z,100.00
2023-03-28T22:23:07.362Z,100.00
2023-03-28T22:25:38.031Z,100.00
2023-03-28T22:28:09.134Z,100.00
2023-03-28T22:30:37.398Z,100.00
2023-03-28T22:33:05.899Z,100.00
2023-03-28T22:35:33.394Z,100.00
2023-03-28T22:38:00.635Z,100.00
2023-03-28T22:40:27.389Z,100.00
2023-03-28T22:42:54.049Z,100.00
2023-03-28T22:45:26.286Z,98.91
2023-03-28T22:47:53.473Z,100.00
2023-03-28T22:50:19.826Z,100.00
2023-03-28T22:52:49.914Z,100.00
2023-03-28T22:55:17.540Z,100.00
2023-03-28T22:57:44.794Z,100.00
2023-03-28T23:00:13.674Z,100.00
2023-03-28T23:02:41.507Z,100.00
2023-03-28T23:05:09.303Z,100.00
2023-03-28T23:07:37.119Z,100.00
2023-03-28T23:10:08.234Z,100.00
2023-03-28T23:12:34.852Z,100.00
2023-03-28T23:15:01.238Z,100.00
2023-03-28T23:17:28.281Z,100.00
2023-03-28T23:19:54.922Z,100.00
2023-03-28T23:22:22.254Z,100.00
2023-03-28T23:24:51.504Z,98.93
2023-03-28T23:27:19.416Z,100.00
2023-03-28T23:29:46.057Z,100.00
2023-03-28T23:32:12.437Z,100.00
2023-03-28T23:34:38.860Z,100.00
2023-03-28T23:37:05.258Z,100.00
2023-03-28T23:39:32.285Z,100.00
2023-03-28T23:41:58.589Z,100.00
2023-03-28T23:44:25.244Z,100.00
2023-03-28T23:46:51.711Z,100.00
2023-03-28T23:49:21.225Z,100.00
2023-03-28T23:51:47.540Z,100.00
2023-03-28T23:54:15.461Z,100.00
2023-03-28T23:56:41.798Z,100.00
2023-03-28T23:59:08.108Z,100.00
